createdAt,value
2019-03-16T00:00:09.001Z,14.07
2019-03-16T00:02:37.495Z,16.97
2019-03-16T00:05:06.840Z,31.77
2019-03-16T00:07:35.246Z,28.57
2019-03-16T00:10:04.420Z,29.17
2019-03-16T00:12:32.844Z,47.17
2019-03-16T00:15:01.311Z,31.10
2019-03-16T00:17:29.724Z,30.77
2019-03-16T00:19:58.161Z,24.07
2019-03-16T00:22:26.565Z,22.57
2019-03-16T00:24:54.973Z,21.97
2019-03-16T00:27:23.395Z,20.10
2019-03-16T00:29:51.788Z,30.10
2019-03-16T00:32:20.211Z,19.53
2019-03-16T00:34:48.635Z,19.37
2019-03-16T00:37:17.061Z,18.23
2019-03-16T00:39:45.466Z,19.97
2019-03-16T00:42:13.956Z,15.70
2019-03-16T00:44:42.377Z,20.17
2019-03-16T00:47:10.864Z,19.87
2019-03-16T00:49:39.252Z,30.30
2019-03-16T00:52:07.676Z,20.33
2019-03-16T00:54:36.074Z,12.87
2019-03-16T00:57:04.652Z,18.07
2019-03-16T00:59:33.092Z,19.17
2019-03-16T01:02:01.558Z,14.43
2019-03-16T01:04:29.974Z,23.60
2019-03-16T01:06:58.401Z,11.93
2019-03-16T01:09:26.788Z,15.07
2019-03-16T01:11:55.205Z,18.43
2019-03-16T01:14:23.606Z,18.13
2019-03-16T01:16:52.088Z,18.00
2019-03-16T01:19:20.505Z,13.63
2019-03-16T01:21:48.894Z,17.00
2019-03-16T01:24:17.308Z,16.63
2019-03-16T01:26:45.744Z,14.40
2019-03-16T01:29:14.262Z,14.73
2019-03-16T01:31:42.648Z,14.97
2019-03-16T01:34:11.066Z,11.40
2019-03-16T01:36:39.465Z,12.67
2019-03-16T01:39:08.563Z,12.83
2019-03-16T01:41:36.965Z,17.17
2019-03-16T01:44:05.604Z,11.63
2019-03-16T01:46:34.044Z,15.73
2019-03-16T01:49:02.521Z,14.03
2019-03-16T01:51:30.929Z,9.93
2019-03-16T01:53:59.329Z,16.83
2019-03-16T01:56:27.735Z,16.77
2019-03-16T01:58:56.240Z,12.37
2019-03-16T02:01:24.634Z,12.60
2019-03-16T02:03:53.050Z,8.43
2019-03-16T02:06:21.451Z,17.67
2019-03-16T02:08:49.859Z,9.23
2019-03-16T02:11:18.280Z,14.43
2019-03-16T02:13:46.750Z,12.83
2019-03-16T02:16:15.229Z,15.63
2019-03-16T02:18:43.749Z,13.27
2019-03-16T02:21:12.142Z,9.83
2019-03-16T02:23:40.568Z,12.50
2019-03-16T02:26:08.968Z,15.80
2019-03-16T02:28:37.399Z,21.87
2019-03-16T02:31:06.264Z,12.50
2019-03-16T02:33:34.649Z,20.10
2019-03-16T02:36:03.080Z,18.93
2019-03-16T02:38:31.480Z,11.43
2019-03-16T02:40:59.908Z,17.73
2019-03-16T02:43:28.403Z,21.27
2019-03-16T02:45:57.027Z,13.97
2019-03-16T02:48:25.433Z,13.47
2019-03-16T02:50:53.834Z,16.67
2019-03-16T02:53:22.261Z,13.13
2019-03-16T02:55:50.672Z,14.90
2019-03-16T02:58:19.081Z,12.93
2019-03-16T03:00:47.495Z,10.63
2019-03-16T03:03:28.704Z,19.07
2019-03-16T03:05:46.017Z,10.07
2019-03-16T03:08:14.432Z,11.90
2019-03-16T03:10:42.910Z,16.37
2019-03-16T03:13:13.534Z,13.67
2019-03-16T03:15:41.453Z,13.37
2019-03-16T03:18:09.936Z,12.90
2019-03-16T03:20:38.339Z,9.67
2019-03-16T03:23:06.759Z,13.00
2019-03-16T03:25:35.176Z,11.93
2019-03-16T03:28:03.674Z,11.47
2019-03-16T03:30:32.165Z,14.43
2019-03-16T03:33:00.631Z,14.53
2019-03-16T03:35:29.704Z,12.87
2019-03-16T03:37:58.258Z,16.03
2019-03-16T03:40:26.661Z,16.50
2019-03-16T03:42:55.092Z,19.13
2019-03-16T03:45:23.524Z,18.47
2019-03-16T03:47:51.962Z,15.33
2019-03-16T03:50:20.359Z,8.33
2019-03-16T03:52:48.775Z,21.73
2019-03-16T03:55:17.165Z,20.40
2019-03-16T03:57:45.664Z,19.30
2019-03-16T04:00:18.318Z,14.93
2019-03-16T04:02:46.973Z,14.47
2019-03-16T04:05:15.519Z,21.07
2019-03-16T04:07:43.996Z,24.37
2019-03-16T04:10:12.746Z,20.20
2019-03-16T04:12:41.167Z,18.97
2019-03-16T04:15:11.062Z,15.70
2019-03-16T04:17:39.542Z,22.10
2019-03-16T04:20:15.227Z,9.73
2019-03-16T04:22:43.698Z,13.93
2019-03-16T04:25:12.250Z,11.70
2019-03-16T04:27:40.690Z,12.23
2019-03-16T04:30:10.614Z,11.33
2019-03-16T04:32:39.043Z,13.20
2019-03-16T04:35:07.826Z,13.50
2019-03-16T04:37:36.257Z,11.17
2019-03-16T04:40:07.035Z,13.17
2019-03-16T04:42:35.551Z,11.40
2019-03-16T04:45:05.493Z,9.87
2019-03-16T04:47:33.914Z,17.57
2019-03-16T04:50:02.430Z,6.33
2019-03-16T04:52:30.851Z,10.50
2019-03-16T04:54:59.255Z,9.10
2019-03-16T04:57:27.677Z,10.97
2019-03-16T04:59:56.100Z,13.07
2019-03-16T05:02:24.572Z,14.47
2019-03-16T05:04:53.002Z,10.13
2019-03-16T05:07:21.434Z,11.13
2019-03-16T05:09:49.827Z,7.63
2019-03-16T05:12:18.247Z,14.27
2019-03-16T05:14:46.665Z,10.00
2019-03-16T05:17:15.079Z,13.70
2019-03-16T05:19:43.482Z,8.90
2019-03-16T05:22:11.902Z,9.43
2019-03-16T05:24:40.317Z,13.00
2019-03-16T05:27:08.725Z,6.27
2019-03-16T05:29:37.149Z,12.03
2019-03-16T05:32:05.636Z,7.33
2019-03-16T05:34:34.039Z,7.63
2019-03-16T05:37:02.522Z,5.53
2019-03-16T05:39:30.925Z,15.83
2019-03-16T05:41:59.355Z,8.03
2019-03-16T05:44:27.751Z,12.23
2019-03-16T05:46:56.160Z,20.77
2019-03-16T05:49:24.600Z,12.70
2019-03-16T05:51:52.999Z,11.10
2019-03-16T05:54:21.423Z,11.83
2019-03-16T05:56:49.830Z,10.90
2019-03-16T05:59:18.255Z,11.67
2019-03-16T06:01:46.676Z,11.50
2019-03-16T06:04:15.077Z,6.53
2019-03-16T06:06:43.520Z,4.53
2019-03-16T06:09:11.923Z,9.57
2019-03-16T06:11:40.333Z,7.07
2019-03-16T06:14:08.835Z,9.23
2019-03-16T06:16:37.252Z,8.07
2019-03-16T06:19:05.833Z,9.20
2019-03-16T06:21:34.239Z,6.90
2019-03-16T06:24:02.716Z,6.40
2019-03-16T06:26:31.135Z,6.37
2019-03-16T06:28:59.559Z,6.77
2019-03-16T06:31:27.983Z,5.63
2019-03-16T06:33:56.554Z,8.30
2019-03-16T06:36:24.990Z,5.43
2019-03-16T06:38:53.383Z,7.00
2019-03-16T06:41:21.839Z,9.20
2019-03-16T06:43:50.246Z,11.70
2019-03-16T06:46:18.678Z,7.83
2019-03-16T06:48:47.100Z,5.00
2019-03-16T06:51:15.504Z,6.60
2019-03-16T06:53:43.932Z,9.53
2019-03-16T06:56:12.341Z,6.57
2019-03-16T06:58:40.752Z,6.53
2019-03-16T07:01:09.255Z,3.60
2019-03-16T07:03:37.678Z,5.27
2019-03-16T07:06:06.075Z,5.57
2019-03-16T07:08:34.494Z,8.30
2019-03-16T07:11:03.090Z,10.03
2019-03-16T07:13:31.510Z,5.57
2019-03-16T07:15:59.992Z,6.63
2019-03-16T07:18:28.424Z,6.10
2019-03-16T07:20:56.886Z,5.40
2019-03-16T07:23:25.380Z,10.23
2019-03-16T07:25:53.933Z,8.93
2019-03-16T07:28:22.433Z,9.00
2019-03-16T07:30:50.896Z,9.50
2019-03-16T07:33:20.979Z,5.53
2019-03-16T07:35:49.357Z,5.23
2019-03-16T07:38:17.761Z,5.83
2019-03-16T07:40:46.194Z,4.73
2019-03-16T07:43:14.633Z,6.13
2019-03-16T07:45:43.059Z,2.93
2019-03-16T07:48:11.487Z,4.77
2019-03-16T07:50:39.876Z,5.50
2019-03-16T07:53:08.371Z,6.60
2019-03-16T07:55:36.768Z,1.90
2019-03-16T07:58:05.188Z,2.90
2019-03-16T08:00:33.603Z,3.97
2019-03-16T08:03:02.057Z,2.37
2019-03-16T08:05:30.536Z,3.70
2019-03-16T08:07:58.972Z,3.47
2019-03-16T08:10:27.413Z,1.40
2019-03-16T08:12:55.806Z,5.13
2019-03-16T08:15:24.225Z,7.30
2019-03-16T08:17:52.640Z,3.83
2019-03-16T08:20:21.132Z,3.23
2019-03-16T08:22:49.609Z,2.90
2019-03-16T08:25:18.104Z,3.40
2019-03-16T08:27:53.970Z,2.33
2019-03-16T08:30:16.834Z,3.60
2019-03-16T08:32:45.176Z,3.00
2019-03-16T08:35:13.660Z,3.37
2019-03-16T08:37:42.169Z,3.30
2019-03-16T08:40:11.623Z,2.17
2019-03-16T08:42:40.045Z,2.27
2019-03-16T08:45:10.001Z,2.20
2019-03-16T08:47:38.467Z,3.80
2019-03-16T08:50:09.233Z,3.20
2019-03-16T08:52:37.708Z,5.73
2019-03-16T08:55:08.166Z,3.83
2019-03-16T08:57:36.576Z,5.50
2019-03-16T09:00:11.072Z,3.77
2019-03-16T09:02:39.461Z,5.77
2019-03-16T09:05:08.571Z,4.80
2019-03-16T09:07:37.117Z,6.17
2019-03-16T09:10:09.659Z,7.20
2019-03-16T09:12:38.061Z,5.67
2019-03-16T09:15:09.522Z,10.23
2019-03-16T09:17:37.933Z,9.93
2019-03-16T09:20:08.388Z,5.63
2019-03-16T09:22:36.862Z,3.63
2019-03-16T09:25:07.806Z,2.80
2019-03-16T09:27:36.376Z,8.37
2019-03-16T09:30:08.042Z,7.63
2019-03-16T09:32:36.476Z,11.83
2019-03-16T09:35:05.845Z,3.17
2019-03-16T09:37:34.293Z,7.17
2019-03-16T09:40:02.694Z,4.10
2019-03-16T09:42:31.163Z,3.03
2019-03-16T09:44:59.603Z,5.23
2019-03-16T09:47:28.008Z,7.03
2019-03-16T09:49:56.433Z,4.60
2019-03-16T09:52:24.909Z,7.97
2019-03-16T09:54:53.467Z,4.30
2019-03-16T09:57:21.855Z,5.07
2019-03-16T09:59:50.282Z,3.00
2019-03-16T10:02:18.702Z,2.87
2019-03-16T10:04:47.136Z,4.90
2019-03-16T10:07:15.539Z,4.40
2019-03-16T10:09:43.976Z,7.67
2019-03-16T10:12:12.383Z,5.57
2019-03-16T10:14:40.803Z,3.30
2019-03-16T10:17:09.193Z,3.20
2019-03-16T10:19:37.633Z,2.60
2019-03-16T10:22:06.120Z,2.90
2019-03-16T10:24:34.516Z,3.17
2019-03-16T10:27:02.938Z,3.43
2019-03-16T10:29:31.411Z,2.97
2019-03-16T10:31:59.854Z,4.37
2019-03-16T10:34:28.243Z,2.97
2019-03-16T10:36:56.675Z,4.80
2019-03-16T10:39:25.085Z,1.63
2019-03-16T10:41:53.511Z,3.17
2019-03-16T10:44:21.939Z,3.60
2019-03-16T10:46:50.337Z,2.63
2019-03-16T10:49:18.812Z,4.37
2019-03-16T10:51:47.233Z,4.10
2019-03-16T10:54:15.675Z,2.87
2019-03-16T10:56:44.063Z,4.07
2019-03-16T10:59:12.512Z,2.50
2019-03-16T11:01:40.912Z,3.70
2019-03-16T11:04:09.402Z,5.47
2019-03-16T11:06:37.824Z,2.87
2019-03-16T11:09:07.163Z,4.40
2019-03-16T11:11:35.627Z,8.87
2019-03-16T11:14:04.134Z,2.60
2019-03-16T11:16:32.544Z,5.00
2019-03-16T11:19:00.980Z,5.30
2019-03-16T11:21:29.381Z,7.07
2019-03-16T11:23:57.779Z,5.70
2019-03-16T11:26:26.210Z,3.33
2019-03-16T11:28:54.601Z,4.53
2019-03-16T11:31:23.098Z,5.30
2019-03-16T11:33:51.573Z,6.87
2019-03-16T11:36:20.064Z,2.80
2019-03-16T11:38:48.490Z,12.70
2019-03-16T11:41:16.900Z,2.13
2019-03-16T11:43:45.313Z,2.50
2019-03-16T11:46:13.733Z,2.77
2019-03-16T11:48:42.135Z,3.10
2019-03-16T11:51:10.632Z,4.00
2019-03-16T11:53:39.050Z,4.53
2019-03-16T11:56:17.440Z,4.60
2019-03-16T11:58:37.637Z,3.07
2019-03-16T12:01:06.055Z,4.30
2019-03-16T12:03:34.534Z,4.27
2019-03-16T12:06:03.011Z,9.40
2019-03-16T12:08:31.405Z,3.63
2019-03-16T12:10:59.809Z,3.50
2019-03-16T12:13:28.211Z,2.70
2019-03-16T12:15:56.606Z,2.50
2019-03-16T12:18:25.083Z,4.80
2019-03-16T12:20:53.542Z,7.80
2019-03-16T12:23:21.931Z,4.23
2019-03-16T12:25:50.463Z,3.30
2019-03-16T12:28:18.921Z,2.80
2019-03-16T12:30:47.333Z,8.63
2019-03-16T12:33:15.873Z,6.00
2019-03-16T12:35:44.245Z,3.23
2019-03-16T12:38:12.643Z,5.00
2019-03-16T12:40:41.127Z,3.37
2019-03-16T12:43:09.590Z,5.83
2019-03-16T12:45:38.139Z,3.53
2019-03-16T12:48:06.635Z,4.70
2019-03-16T12:50:35.078Z,8.47
2019-03-16T12:53:03.504Z,3.27
2019-03-16T12:55:31.939Z,2.00
2019-03-16T12:58:00.339Z,9.40
2019-03-16T13:00:28.883Z,4.30
2019-03-16T13:02:57.342Z,6.40
2019-03-16T13:05:25.846Z,3.90
2019-03-16T13:07:54.275Z,2.80
2019-03-16T13:10:22.661Z,2.70
2019-03-16T13:12:51.157Z,5.40
2019-03-16T13:15:19.601Z,5.73
2019-03-16T13:17:48.017Z,6.73
2019-03-16T13:20:17.343Z,3.53
2019-03-16T13:22:45.791Z,2.60
2019-03-16T13:25:14.436Z,3.90
2019-03-16T13:27:42.954Z,5.13
2019-03-16T13:30:17.075Z,5.83
2019-03-16T13:32:45.505Z,5.13
2019-03-16T13:35:14.356Z,5.03
2019-03-16T13:37:42.869Z,5.23
2019-03-16T13:40:13.987Z,4.47
2019-03-16T13:42:42.384Z,5.13
2019-03-16T13:45:11.244Z,5.00
2019-03-16T13:47:39.763Z,2.60
2019-03-16T13:50:19.060Z,7.00
2019-03-16T13:52:47.741Z,3.70
2019-03-16T13:55:16.168Z,6.53
2019-03-16T13:57:44.582Z,4.57
2019-03-16T14:00:18.077Z,2.67
2019-03-16T14:02:46.466Z,3.00
2019-03-16T14:05:15.030Z,4.07
2019-03-16T14:07:43.702Z,5.10
2019-03-16T14:10:17.961Z,3.70
2019-03-16T14:12:46.369Z,6.87
2019-03-16T14:15:15.085Z,7.67
2019-03-16T14:17:43.776Z,5.40
2019-03-16T14:20:16.515Z,3.70
2019-03-16T14:22:44.940Z,2.83
2019-03-16T14:25:13.427Z,4.20
2019-03-16T14:27:41.900Z,4.13
2019-03-16T14:30:29.434Z,6.97
2019-03-16T14:32:48.571Z,4.17
2019-03-16T14:35:17.005Z,6.93
2019-03-16T14:37:45.452Z,4.50
2019-03-16T14:40:15.066Z,3.77
2019-03-16T14:42:43.681Z,6.40
2019-03-16T14:45:13.418Z,4.20
2019-03-16T14:47:41.882Z,2.37
2019-03-16T14:50:24.949Z,4.20
2019-03-16T14:52:53.444Z,5.47
2019-03-16T14:55:21.930Z,10.37
2019-03-16T14:57:50.361Z,4.93
2019-03-16T15:00:19.229Z,3.33
2019-03-16T15:02:47.718Z,94.17
2019-03-16T15:05:16.440Z,3.67
2019-03-16T15:07:45.085Z,5.63
2019-03-16T15:10:17.870Z,4.30
2019-03-16T15:12:46.382Z,5.93
2019-03-16T15:15:16.140Z,9.20
2019-03-16T15:17:44.711Z,9.63
2019-03-16T15:20:13.481Z,3.23
2019-03-16T15:22:42.015Z,4.00
2019-03-16T15:25:11.838Z,5.27
2019-03-16T15:27:40.420Z,7.53
2019-03-16T15:30:14.528Z,2.63
2019-03-16T15:32:43.020Z,7.33
2019-03-16T15:35:11.421Z,4.23
2019-03-16T15:37:39.890Z,3.53
2019-03-16T15:40:10.813Z,6.17
2019-03-16T15:42:39.310Z,5.03
2019-03-16T15:45:16.246Z,4.50
2019-03-16T15:47:44.733Z,9.43
2019-03-16T15:50:13.261Z,7.53
2019-03-16T15:52:41.765Z,5.20
2019-03-16T15:55:10.505Z,5.83
2019-03-16T15:57:42.205Z,6.90
2019-03-16T16:00:14.809Z,3.77
2019-03-16T16:02:43.355Z,9.07
2019-03-16T16:05:11.944Z,3.93
2019-03-16T16:07:40.436Z,5.17
2019-03-16T16:10:16.035Z,5.40
2019-03-16T16:12:44.561Z,5.83
2019-03-16T16:15:13.198Z,5.87
2019-03-16T16:17:41.767Z,9.60
2019-03-16T16:20:15.646Z,3.80
2019-03-16T16:22:44.163Z,5.10
2019-03-16T16:25:13.397Z,7.67
2019-03-16T16:27:41.888Z,6.63
2019-03-16T16:30:16.284Z,4.30
2019-03-16T16:32:47.496Z,5.20
2019-03-16T16:35:16.536Z,4.30
2019-03-16T16:37:45.041Z,4.90
2019-03-16T16:40:16.516Z,5.60
2019-03-16T16:42:44.980Z,4.20
2019-03-16T16:45:14.569Z,5.10
2019-03-16T16:47:43.121Z,4.77
2019-03-16T16:50:19.531Z,3.97
2019-03-16T16:52:48.107Z,5.53
2019-03-16T16:55:16.627Z,3.90
2019-03-16T16:57:45.073Z,8.30
2019-03-16T17:00:15.748Z,5.10
2019-03-16T17:02:44.329Z,6.30
2019-03-16T17:05:16.608Z,9.13
2019-03-16T17:07:45.885Z,5.27
2019-03-16T17:10:15.447Z,2.90
2019-03-16T17:12:44.342Z,4.40
2019-03-16T17:15:14.387Z,4.70
2019-03-16T17:17:42.843Z,2.50
2019-03-16T17:20:13.084Z,6.10
2019-03-16T17:22:41.649Z,5.30
2019-03-16T17:25:11.812Z,5.33
2019-03-16T17:27:40.224Z,6.20
2019-03-16T17:30:17.588Z,5.07
2019-03-16T17:32:46.083Z,3.97
2019-03-16T17:35:14.486Z,4.93
2019-03-16T17:37:42.952Z,4.13
2019-03-16T17:40:16.011Z,4.40
2019-03-16T17:42:44.657Z,4.60
2019-03-16T17:45:14.086Z,3.87
2019-03-16T17:47:42.754Z,5.40
2019-03-16T17:50:13.160Z,5.60
2019-03-16T17:52:41.885Z,4.60
2019-03-16T17:55:12.221Z,3.73
2019-03-16T17:57:40.815Z,6.60
2019-03-16T18:00:12.427Z,6.23
2019-03-16T18:02:50.515Z,7.10
2019-03-16T18:05:11.273Z,5.57
2019-03-16T18:07:39.732Z,4.13
2019-03-16T18:10:12.464Z,6.50
2019-03-16T18:12:40.951Z,18.00
2019-03-16T18:15:12.053Z,25.17
2019-03-16T18:17:40.619Z,8.73
2019-03-16T18:20:17.073Z,6.10
2019-03-16T18:22:44.531Z,10.80
2019-03-16T18:25:13.787Z,10.70
2019-03-16T18:27:42.429Z,7.10
2019-03-16T18:30:18.151Z,7.00
2019-03-16T18:32:46.556Z,10.00
2019-03-16T18:35:15.120Z,10.67
2019-03-16T18:37:43.850Z,21.33
2019-03-16T18:40:16.278Z,13.03
2019-03-16T18:42:44.752Z,9.03
2019-03-16T18:45:28.034Z,9.53
2019-03-16T18:47:56.511Z,10.97
2019-03-16T18:50:24.900Z,9.60
2019-03-16T18:52:53.330Z,5.47
2019-03-16T18:55:21.753Z,7.03
2019-03-16T18:57:50.147Z,5.80
2019-03-16T19:00:19.126Z,13.93
2019-03-16T19:02:47.532Z,11.40
2019-03-16T19:05:16.081Z,11.47
2019-03-16T19:07:44.679Z,8.93
2019-03-16T19:10:19.069Z,8.80
2019-03-16T19:12:47.611Z,11.57
2019-03-16T19:15:17.951Z,12.20
2019-03-16T19:17:58.240Z,8.77
2019-03-16T19:20:17.511Z,6.20
2019-03-16T19:22:46.146Z,8.60
2019-03-16T19:25:16.937Z,10.00
2019-03-16T19:27:45.581Z,10.57
2019-03-16T19:30:15.888Z,6.33
2019-03-16T19:32:44.805Z,14.40
2019-03-16T19:35:13.468Z,9.27
2019-03-16T19:37:41.873Z,10.83
2019-03-16T19:40:18.265Z,8.23
2019-03-16T19:42:47.414Z,8.97
2019-03-16T19:45:16.097Z,12.20
2019-03-16T19:47:44.571Z,10.40
2019-03-16T19:50:14.472Z,6.40
2019-03-16T19:52:42.950Z,11.27
2019-03-16T19:55:12.635Z,7.90
2019-03-16T19:57:41.104Z,5.47
2019-03-16T20:00:19.538Z,6.40
2019-03-16T20:02:51.479Z,6.87
2019-03-16T20:05:18.261Z,7.43
2019-03-16T20:07:46.696Z,11.37
2019-03-16T20:10:19.778Z,8.73
2019-03-16T20:12:48.409Z,10.17
2019-03-16T20:15:17.011Z,8.70
2019-03-16T20:17:45.435Z,10.00
2019-03-16T20:20:15.215Z,11.60
2019-03-16T20:22:43.750Z,9.87
2019-03-16T20:25:12.409Z,8.17
2019-03-16T20:27:40.879Z,7.00
2019-03-16T20:30:25.905Z,11.83
2019-03-16T20:32:48.517Z,10.90
2019-03-16T20:35:17.538Z,9.63
2019-03-16T20:37:45.958Z,6.43
2019-03-16T20:40:15.607Z,9.43
2019-03-16T20:42:44.177Z,6.03
2019-03-16T20:45:13.012Z,8.60
2019-03-16T20:47:41.562Z,5.30
2019-03-16T20:50:14.280Z,9.03
2019-03-16T20:52:42.837Z,12.30
2019-03-16T20:55:11.607Z,13.00
2019-03-16T20:57:40.100Z,10.67
2019-03-16T21:00:16.873Z,10.57
2019-03-16T21:02:45.444Z,25.77
2019-03-16T21:05:14.134Z,40.87
2019-03-16T21:07:42.717Z,22.10
2019-03-16T21:10:14.480Z,25.07
2019-03-16T21:12:43.091Z,34.27
2019-03-16T21:15:13.062Z,36.63
2019-03-16T21:17:41.508Z,41.93
2019-03-16T21:20:12.881Z,37.60
2019-03-16T21:22:41.490Z,38.20
2019-03-16T21:25:11.835Z,41.70
2019-03-16T21:27:40.400Z,39.23
2019-03-16T21:30:14.932Z,32.77
2019-03-16T21:32:43.442Z,45.67
2019-03-16T21:35:11.982Z,46.00
2019-03-16T21:37:40.486Z,36.07
2019-03-16T21:40:13.500Z,37.47
2019-03-16T21:42:42.017Z,30.90
2019-03-16T21:45:13.447Z,32.90
2019-03-16T21:47:41.938Z,31.00
2019-03-16T21:50:12.736Z,24.97
2019-03-16T21:52:44.152Z,23.60
2019-03-16T21:55:12.472Z,30.00
2019-03-16T21:57:41.016Z,16.60
2019-03-16T22:00:13.886Z,22.87
2019-03-16T22:02:42.434Z,38.77
2019-03-16T22:05:11.121Z,13.30
2019-03-16T22:07:39.622Z,14.03
2019-03-16T22:10:12.382Z,12.13
2019-03-16T22:12:40.846Z,26.03
2019-03-16T22:15:11.603Z,8.33
2019-03-16T22:17:40.113Z,13.83
2019-03-16T22:20:19.535Z,13.40
2019-03-16T22:22:48.042Z,8.17
2019-03-16T22:25:16.530Z,4.50
2019-03-16T22:27:45.023Z,5.07
2019-03-16T22:30:17.455Z,8.23
2019-03-16T22:32:45.901Z,10.50
2019-03-16T22:35:14.363Z,6.10
2019-03-16T22:37:42.861Z,9.47
2019-03-16T22:40:14.834Z,5.37
2019-03-16T22:42:43.319Z,5.00
2019-03-16T22:45:14.650Z,17.30
2019-03-16T22:47:43.106Z,6.70
2019-03-16T22:50:16.921Z,8.50
2019-03-16T22:52:45.486Z,22.43
2019-03-16T22:55:15.821Z,6.30
2019-03-16T22:57:44.353Z,9.20
2019-03-16T23:00:28.681Z,6.80
2019-03-16T23:02:57.088Z,4.00
2019-03-16T23:05:25.566Z,4.97
2019-03-16T23:07:54.079Z,4.73
2019-03-16T23:10:22.678Z,5.00
2019-03-16T23:12:51.326Z,5.93
2019-03-16T23:15:19.695Z,5.33
2019-03-16T23:17:48.102Z,8.47
2019-03-16T23:20:16.534Z,4.13
2019-03-16T23:22:44.928Z,6.00
2019-03-16T23:25:13.423Z,13.10
2019-03-16T23:27:41.914Z,3.63
2019-03-16T23:30:12.011Z,8.47
2019-03-16T23:32:40.423Z,8.00
2019-03-16T23:35:09.567Z,4.27
2019-03-16T23:37:38.154Z,7.50
2019-03-16T23:40:13.452Z,4.10
2019-03-16T23:42:41.931Z,4.80
2019-03-16T23:45:12.435Z,4.97
2019-03-16T23:47:40.979Z,7.30
2019-03-16T23:50:10.702Z,6.40
2019-03-16T23:52:39.181Z,5.80
2019-03-16T23:55:08.809Z,5.50
2019-03-16T23:57:37.251Z,6.57
